METAR Data
IDs: Format: Raw Decoded Include TAF

Data at: 0911 UTC 18 Jan 2019

PAMC 180853Z AUTO 35003KT 10SM CLR M26/M28 A2989 RMK AO2 SLP135 T12611283 411721261 53007 TSNO $
PAMC 180753Z AUTO 00000KT 10SM CLR M26/M28 A2988 RMK AO2 SLP132 T12561278 TSNO $
PAMC 180653Z AUTO 00000KT 10SM CLR M24/M27 A2987 RMK AO2 SLP128 T12441267 TSNO $
PAMC 180553Z AUTO 00000KT 10SM CLR M23/M26 A2986 RMK AO2 SLP126 T12331256 11189 21239 55000 TSNO $
PAMC 180453Z AUTO 00000KT 10SM CLR M23/M24 A2986 RMK AO2 SLP125 T12281244 TSNO $
PAMC 180353Z AUTO VRB03KT 10SM CLR M22/M24 A2986 RMK AO2 SLP125 T12221239 TSNO $
PAMC 180253Z AUTO VRB04KT 10SM CLR M22/M23 A2987 RMK AO2 SLP127 T12171233 55001 TSNO $
PAMC 180153Z AUTO 00000KT 10SM CLR M20/M21 A2986 RMK AO2 SLP123 T12001211 TSNO $
PAMC 180053Z AUTO 34006KT 10SM CLR M19/M21 A2986 RMK AO2 SLP124 T11891206 TSNO $
PAMC 172353Z AUTO 34006KT 10SM CLR M19/M21 A2987 RMK AO2 SLP126 T11941211 11189 21217 58001 TSNO $
PAMC 172253Z AUTO VRB04KT 10SM CLR M19/M22 A2987 RMK AO2 SLP128 T11941217 TSNO $
PAMC 172153Z AUTO 10SM CLR M21/M22 A2987 RMK AO2 SLP128 T12061222 TSNO
PAMC 172053Z AUTO 00000KT 10SM CLR M21/M23 A2987 RMK AO2 SLP129 T12111233 51004 TSNO
PAMC 171953Z AUTO 00000KT 10SM CLR M22/M23 A2986 RMK AO2 SLP126 T12171233 TSNO
PAMC 171853Z AUTO 33004KT 10SM CLR M21/M23 A2987 RMK AO2 SLP128 T12111233 TSNO
PAMC 171753Z AUTO VRB03KT 10SM CLR M21/M23 A2986 RMK AO2 SLP125 T12111228 11172 21217 51004 TSNO
PAMC 171653Z AUTO 32003KT 10SM CLR M21/M23 A2986 RMK AO2 SLP125 T12111228 TSNO
PAMC 171553Z AUTO VRB04KT 10SM CLR M21/M23 A2985 RMK AO2 SLP122 T12111228 TSNO
PAMC 171453Z AUTO VRB03KT 10SM OVC120 M21/M22 A2985 RMK AO2 SLP120 T12061222 53006 TSNO
PAMC 171353Z AUTO VRB05KT 10SM FEW100 M19/M21 A2984 RMK AO2 SLP118 T11941211 TSNO
PAMC 171253Z AUTO VRB03KT 10SM FEW090 M18/M19 A2983 RMK AO2 SLP115 T11781194 TSNO
PAMC 171153Z AUTO VRB04KT 10SM OVC100 M18/M20 A2983 RMK AO2 SLP113 T11781200 11178 21222 53008 TSNO
PAMC 171053Z AUTO 32006KT 10SM OVC095 M18/M21 A2982 RMK AO2 SLP109 T11831206 TSNO
PAMC 170953Z AUTO 34006KT 10SM OVC095 M19/M22 A2981 RMK AO2 SLP108 T11941222 TSNO
PAMC 170853Z AUTO 33004KT 10SM OVC100 M21/M23 A2980 RMK AO2 SLP105 T12111228 412111294 50004 TSNO
PAMC 170753Z AUTO 00000KT 10SM CLR M21/M23 A2980 RMK AO2 SLP106 T12111233 TSNO
PAMC 170653Z AUTO 28003KT 10SM CLR M21/M23 A2980 RMK AO2 SLP104 T12111233 TSNO
PAMC 170553Z AUTO 10SM CLR M22/M24 A2979 RMK AO2 SLP102 T12221239 11217 21233 51004 TSNO
PAMC 170453Z AUTO 00000KT 10SM CLR M22/M24 A2978 RMK AO2 SLP099 T12221244 TSNO
PAMC 170353Z AUTO 32003KT 10SM CLR M22/M24 A2979 RMK AO2 SLP101 T12221244 TSNO
PAMC 170253Z AUTO 00000KT 10SM CLR M22/M24 A2978 RMK AO2 SLP098 T12221244 53003 TSNO
PAMC 170153Z AUTO 00000KT 10SM CLR M23/M24 A2978 RMK AO2 SLP098 T12281244 TSNO
PAMC 170053Z AUTO 34004KT 10SM CLR M23/M24 A2977 RMK AO2 SLP094 T12281244 TSNO
PAMC 162353Z AUTO 32006KT 10SM CLR M22/M24 A2977 RMK AO2 SLP095 T12221244 11211 21289 55002 TSNO
PAMC 162253Z AUTO 34004KT 10SM CLR M22/M24 A2976 RMK AO2 SLP093 T12221244 TSNO
PAMC 162153Z AUTO 31004KT 10SM CLR M23/M25 A2977 RMK AO2 SLP094 T12331250 TSNO